Austin, Texas
Traffic Map
Current Weather Conditions
Austin, Texas
Clear
Clear
37°
Feels Like: 38°
Wind Chill: 37° Ceiling: Unl
Heat Index: 38° Visibility: 10mi
Dew Point: 17° Wind: 0mph
Humidity: 31% Direction: ° ()
Pressure: 30.07in Gusts: 0mph
Raw Report DataKATT 282051Z AUTO 00000KT 10SM CLR 37/17 A3007 RMK AO2 SLP168 T03670172 56016
Traffic Incident Summary
Active as of:
Severity:
Category:
InformationThere was an issue retrieving the traffic information for this location. Please try a different location or try again shortly.
Advertisements
Track Severe Weather on mobile